createdAt,value
2023-02-21T00:00:15.660Z,9.40
2023-02-21T00:03:24.166Z,11.20
2023-02-21T00:06:12.465Z,7.80
2023-02-21T00:09:00.842Z,8.70
2023-02-21T00:11:49.179Z,7.60
2023-02-21T00:14:36.494Z,8.70
2023-02-21T00:17:24.758Z,10.40
2023-02-21T00:20:12.374Z,8.90
2023-02-21T00:23:00.430Z,9.40
2023-02-21T00:25:48.052Z,8.00
2023-02-21T00:28:37.044Z,9.30
2023-02-21T00:31:26.127Z,9.10
2023-02-21T00:34:14.111Z,9.40
2023-02-21T00:37:02.478Z,7.90
2023-02-21T00:39:51.330Z,7.40
2023-02-21T00:42:39.654Z,9.10
2023-02-21T00:45:29.437Z,8.80
2023-02-21T00:48:16.898Z,10.60
2023-02-21T00:51:05.212Z,8.90
2023-02-21T00:53:54.160Z,8.40
2023-02-21T00:56:42.970Z,8.70
2023-02-21T00:59:31.698Z,8.20
2023-02-21T01:02:19.932Z,8.40
2023-02-21T01:05:08.722Z,9.70
2023-02-21T01:07:58.716Z,10.10
2023-02-21T01:10:48.339Z,9.30
2023-02-21T01:13:38.026Z,8.50
2023-02-21T01:16:26.941Z,13.50
2023-02-21T01:19:16.527Z,10.30
2023-02-21T01:22:05.340Z,8.60
2023-02-21T01:24:54.595Z,11.20
2023-02-21T01:27:43.015Z,9.20
2023-02-21T01:30:32.391Z,9.80
2023-02-21T01:33:22.694Z,10.30
2023-02-21T01:39:02.322Z,10.20
2023-02-21T01:41:51.526Z,8.00
2023-02-21T01:44:54.423Z,9.40
2023-02-21T01:47:45.788Z,10.80
2023-02-21T01:50:50.560Z,8.80
2023-02-21T01:53:45.289Z,8.80
2023-02-21T01:56:35.355Z,9.80
2023-02-21T01:59:25.614Z,10.10
2023-02-21T02:02:26.534Z,7.60
2023-02-21T02:05:16.668Z,12.40
2023-02-21T02:08:06.358Z,9.00
2023-02-21T02:10:54.798Z,11.30
2023-02-21T02:13:31.093Z,8.70
2023-02-21T02:16:16.696Z,8.50
2023-02-21T02:19:01.736Z,8.50
2023-02-21T02:21:57.608Z,9.10
2023-02-21T02:24:59.707Z,9.70
2023-02-21T02:28:04.754Z,9.10
2023-02-21T02:31:01.558Z,9.90
2023-02-21T02:33:59.992Z,9.70
2023-02-21T02:36:43.683Z,8.90
2023-02-21T02:39:44.347Z,7.70
2023-02-21T02:42:36.515Z,8.50
2023-02-21T02:45:16.928Z,7.90
2023-02-21T02:47:53.492Z,7.90
2023-02-21T02:50:27.930Z,7.30
2023-02-21T02:53:04.669Z,9.20
2023-02-21T02:55:44.708Z,8.40
2023-02-21T02:58:16.556Z,8.00
2023-02-21T03:01:12.652Z,7.80
2023-02-21T03:04:04.387Z,8.20
2023-02-21T03:06:38.294Z,9.00
2023-02-21T03:09:39.834Z,8.10
2023-02-21T03:12:15.305Z,7.60
2023-02-21T03:14:58.482Z,7.70
2023-02-21T03:17:33.324Z,8.80
2023-02-21T03:20:06.745Z,7.40
2023-02-21T03:22:38.162Z,7.50
2023-02-21T03:25:10.167Z,6.40
2023-02-21T03:27:42.830Z,8.20
2023-02-21T03:30:22.764Z,8.60
2023-02-21T03:32:55.692Z,6.90
2023-02-21T03:35:31.397Z,6.70
2023-02-21T03:38:02.257Z,7.70
2023-02-21T03:40:35.600Z,6.60
2023-02-21T03:43:07.699Z,8.10
2023-02-21T03:45:51.581Z,9.20
2023-02-21T03:48:31.414Z,9.90
2023-02-21T03:51:06.460Z,7.90
2023-02-21T03:53:39.728Z,10.60
2023-02-21T03:56:10.247Z,8.40
2023-02-21T03:58:53.309Z,7.60
2023-02-21T04:01:22.626Z,9.60
2023-02-21T04:06:23.829Z,9.20
2023-02-21T04:08:53.967Z,8.60
2023-02-21T04:11:25.247Z,9.20
2023-02-21T04:13:56.958Z,11.20
2023-02-21T04:16:27.821Z,8.90
2023-02-21T04:19:00.200Z,11.40
2023-02-21T04:21:31.527Z,10.10
2023-02-21T04:24:03.974Z,9.40
2023-02-21T04:26:35.526Z,8.90
2023-02-21T04:29:06.530Z,9.20
2023-02-21T04:31:36.704Z,10.90
2023-02-21T04:34:12.629Z,8.20
2023-02-21T04:36:45.869Z,13.60
2023-02-21T04:41:44.646Z,9.20
2023-02-21T04:46:44.878Z,9.20
2023-02-21T04:51:44.444Z,10.50
2023-02-21T04:56:43.906Z,10.50
2023-02-21T04:59:12.809Z,9.60
2023-02-21T05:01:41.916Z,8.00
2023-02-21T05:04:12.593Z,11.50
2023-02-21T05:06:42.135Z,8.50
2023-02-21T05:09:11.653Z,11.50
2023-02-21T05:11:42.490Z,9.30
2023-02-21T05:14:12.081Z,12.10
2023-02-21T05:16:41.521Z,11.00
2023-02-21T05:19:11.898Z,11.20
2023-02-21T05:21:41.376Z,10.10
2023-02-21T05:24:11.260Z,10.30
2023-02-21T05:26:41.266Z,12.00
2023-02-21T05:29:10.510Z,9.20
2023-02-21T05:31:39.855Z,9.90
2023-02-21T05:34:09.277Z,9.40
2023-02-21T05:36:40.100Z,9.10
2023-02-21T05:39:10.902Z,8.90
2023-02-21T05:41:40.523Z,10.20
2023-02-21T05:44:09.642Z,10.90
2023-02-21T05:46:38.412Z,10.60
2023-02-21T05:49:07.811Z,10.30
2023-02-21T05:51:42.096Z,11.30
2023-02-21T05:54:19.142Z,9.70
2023-02-21T05:56:51.132Z,9.90
2023-02-21T05:59:21.704Z,11.40
2023-02-21T06:01:51.209Z,9.20
2023-02-21T06:04:20.609Z,10.40
2023-02-21T06:06:50.114Z,11.70
2023-02-21T06:09:19.834Z,11.20
2023-02-21T06:11:48.922Z,12.80
2023-02-21T06:14:21.302Z,11.60
2023-02-21T06:16:50.796Z,11.70
2023-02-21T06:19:20.196Z,11.10
2023-02-21T06:21:49.189Z,11.00
2023-02-21T06:24:17.976Z,9.10
2023-02-21T06:26:47.282Z,12.20
2023-02-21T06:29:16.059Z,12.60
2023-02-21T06:31:44.992Z,12.30
2023-02-21T06:34:14.358Z,12.20
2023-02-21T06:36:44.182Z,10.80
2023-02-21T06:39:13.265Z,10.20
2023-02-21T06:41:42.058Z,12.20
2023-02-21T06:44:12.067Z,11.90
2023-02-21T06:46:40.861Z,9.90
2023-02-21T06:49:10.259Z,8.90
2023-02-21T06:51:41.420Z,9.40
2023-02-21T06:54:10.293Z,10.20
2023-02-21T06:56:39.734Z,9.50
2023-02-21T06:59:09.239Z,10.80
2023-02-21T07:01:38.308Z,9.40
2023-02-21T07:04:07.187Z,10.40
2023-02-21T07:06:36.793Z,11.20
2023-02-21T07:09:07.022Z,8.90
2023-02-21T07:11:36.105Z,10.40
2023-02-21T07:14:04.896Z,10.00
2023-02-21T07:16:33.888Z,9.40
2023-02-21T07:19:02.367Z,11.40
2023-02-21T07:21:31.357Z,17.50
2023-02-21T07:24:00.253Z,33.30
2023-02-21T07:26:28.948Z,10.30
2023-02-21T07:28:57.956Z,9.10
2023-02-21T07:31:27.398Z,10.90
2023-02-21T07:33:56.324Z,9.70
2023-02-21T07:36:25.829Z,9.70
2023-02-21T07:38:54.428Z,8.20
2023-02-21T07:41:23.612Z,9.10
2023-02-21T07:43:52.750Z,9.20
2023-02-21T07:46:27.584Z,12.10
2023-02-21T07:48:57.352Z,8.60
2023-02-21T07:51:32.190Z,9.60
2023-02-21T07:54:04.451Z,11.50
2023-02-21T07:56:33.334Z,9.50
2023-02-21T07:59:02.333Z,9.70
2023-02-21T08:01:31.035Z,10.40
2023-02-21T08:03:59.709Z,11.60
2023-02-21T08:06:28.522Z,11.80
2023-02-21T08:08:57.168Z,11.40
2023-02-21T08:11:28.311Z,12.40
2023-02-21T08:13:56.999Z,10.90
2023-02-21T08:16:26.366Z,10.70
2023-02-21T08:18:55.296Z,10.10
2023-02-21T08:21:24.896Z,13.50
2023-02-21T08:23:55.538Z,13.40
2023-02-21T08:26:24.110Z,11.40
2023-02-21T08:28:53.620Z,10.20
2023-02-21T08:31:22.931Z,9.40
2023-02-21T08:33:51.959Z,8.70
2023-02-21T08:36:20.612Z,9.80
2023-02-21T08:38:49.275Z,10.20
2023-02-21T08:41:18.066Z,9.50
2023-02-21T08:43:47.264Z,10.30
2023-02-21T08:46:15.994Z,10.00
2023-02-21T08:48:44.634Z,8.80
2023-02-21T08:51:13.960Z,10.20
2023-02-21T08:53:44.050Z,8.30
2023-02-21T08:56:13.564Z,8.80
2023-02-21T08:58:42.141Z,8.20
2023-02-21T09:01:11.094Z,7.80
2023-02-21T09:03:40.744Z,6.60
2023-02-21T09:06:10.143Z,4.10
2023-02-21T09:08:39.444Z,6.70
2023-02-21T09:11:08.650Z,6.70
2023-02-21T09:13:37.229Z,7.00
2023-02-21T09:16:06.670Z,8.20
2023-02-21T09:18:35.329Z,5.70
2023-02-21T09:21:04.417Z,6.10
2023-02-21T09:23:33.709Z,5.10
2023-02-21T09:26:02.299Z,6.00
2023-02-21T09:28:31.794Z,6.40
2023-02-21T09:31:00.591Z,6.60
2023-02-21T09:33:31.318Z,6.80
2023-02-21T09:36:00.121Z,7.00
2023-02-21T09:38:28.895Z,7.50
2023-02-21T09:41:04.192Z,7.60
2023-02-21T09:43:38.572Z,6.70
2023-02-21T09:46:19.427Z,6.40
2023-02-21T09:48:50.030Z,5.30
2023-02-21T09:51:18.944Z,5.70
2023-02-21T09:53:49.525Z,6.50
2023-02-21T09:56:37.021Z,8.00
2023-02-21T09:59:11.978Z,4.60
2023-02-21T10:01:50.240Z,5.20
2023-02-21T10:04:53.044Z,8.40
2023-02-21T10:08:13.535Z,5.40
2023-02-21T10:10:48.192Z,4.50
2023-02-21T10:13:45.817Z,6.60
2023-02-21T10:16:21.433Z,5.60
2023-02-21T10:19:15.238Z,5.40
2023-02-21T10:21:49.924Z,5.10
2023-02-21T10:24:24.321Z,5.90
2023-02-21T10:27:06.612Z,4.20
2023-02-21T10:29:46.333Z,6.00
2023-02-21T10:32:15.343Z,5.20
2023-02-21T10:34:47.505Z,5.90
2023-02-21T10:37:51.402Z,3.70
2023-02-21T10:40:28.793Z,4.20
2023-02-21T10:43:05.976Z,3.70
2023-02-21T10:45:40.818Z,3.70
2023-02-21T10:48:11.641Z,5.00
2023-02-21T10:50:54.865Z,4.50
2023-02-21T10:53:32.882Z,3.20
2023-02-21T10:56:19.078Z,4.40
2023-02-21T10:58:58.300Z,4.10
2023-02-21T11:01:26.951Z,3.90
2023-02-21T11:03:59.565Z,3.60
2023-02-21T11:06:31.017Z,4.50
2023-02-21T11:09:00.416Z,3.80
2023-02-21T11:11:40.996Z,3.90
2023-02-21T11:14:21.454Z,4.40
2023-02-21T11:17:15.227Z,4.50
2023-02-21T11:19:53.020Z,3.70
2023-02-21T11:22:37.264Z,4.20
2023-02-21T11:25:28.688Z,3.60
2023-02-21T11:28:07.646Z,4.50
2023-02-21T11:30:39.047Z,3.80
2023-02-21T11:33:09.373Z,4.90
2023-02-21T11:35:48.930Z,5.10
2023-02-21T11:38:40.995Z,5.40
2023-02-21T11:41:31.466Z,5.30
2023-02-21T11:44:00.347Z,4.30
2023-02-21T11:46:31.597Z,4.50
2023-02-21T11:49:19.221Z,4.70
2023-02-21T11:51:54.265Z,5.20
2023-02-21T11:54:26.938Z,4.00
2023-02-21T11:57:07.293Z,2.90
2023-02-21T11:59:54.411Z,3.80
2023-02-21T12:02:29.669Z,4.00
2023-02-21T12:05:15.344Z,5.80
2023-02-21T12:07:46.073Z,4.70
2023-02-21T12:10:24.075Z,4.80
2023-02-21T12:13:13.443Z,4.20
2023-02-21T12:15:44.698Z,3.90
2023-02-21T12:18:16.548Z,4.70
2023-02-21T12:21:00.493Z,4.70
2023-02-21T12:23:45.269Z,4.20
2023-02-21T12:26:35.647Z,5.20
2023-02-21T12:29:44.884Z,4.30
2023-02-21T12:32:51.260Z,4.50
2023-02-21T12:35:49.559Z,4.80
2023-02-21T12:38:45.335Z,4.30
2023-02-21T12:41:32.064Z,5.00
2023-02-21T12:44:51.642Z,3.90
2023-02-21T12:47:44.532Z,4.50
2023-02-21T12:50:18.403Z,5.40
2023-02-21T12:53:05.317Z,6.20
2023-02-21T12:55:40.412Z,4.80
2023-02-21T12:58:36.790Z,4.50
2023-02-21T13:01:27.611Z,5.70
2023-02-21T13:04:18.093Z,9.10
2023-02-21T13:06:55.581Z,7.00
2023-02-21T13:09:35.322Z,4.40
2023-02-21T13:12:05.958Z,3.70
2023-02-21T13:14:44.157Z,4.10
2023-02-21T13:17:16.899Z,3.90
2023-02-21T13:19:56.067Z,3.70
2023-02-21T13:23:21.080Z,5.80
2023-02-21T13:26:16.803Z,4.40
2023-02-21T13:28:46.836Z,5.30
2023-02-21T13:31:38.423Z,4.00
2023-02-21T13:34:18.283Z,4.00
2023-02-21T13:36:48.209Z,4.00
2023-02-21T13:39:36.755Z,4.30
2023-02-21T13:42:18.295Z,4.50
2023-02-21T13:44:51.942Z,5.20
2023-02-21T13:47:23.180Z,3.70
2023-02-21T13:49:57.342Z,3.60
2023-02-21T13:52:52.405Z,3.70
2023-02-21T13:55:23.972Z,3.50
2023-02-21T13:58:12.511Z,4.70
2023-02-21T14:00:41.683Z,4.70
2023-02-21T14:03:10.284Z,4.40
2023-02-21T14:05:52.724Z,6.10
2023-02-21T14:08:29.894Z,5.90
2023-02-21T14:10:58.465Z,8.10
2023-02-21T14:13:41.387Z,5.50
2023-02-21T14:16:13.002Z,6.00
2023-02-21T14:18:47.664Z,4.60
2023-02-21T14:21:22.894Z,3.60
2023-02-21T14:24:03.170Z,5.00
2023-02-21T14:26:51.852Z,5.00
2023-02-21T14:29:36.519Z,4.20
2023-02-21T14:32:11.073Z,5.30
2023-02-21T14:34:57.495Z,5.30
2023-02-21T14:37:28.644Z,3.20
2023-02-21T14:40:19.765Z,3.60
2023-02-21T14:43:04.858Z,3.20
2023-02-21T14:45:36.422Z,2.90
2023-02-21T14:48:16.018Z,3.30
2023-02-21T14:51:03.354Z,3.20
2023-02-21T14:53:57.624Z,3.40
2023-02-21T14:56:41.256Z,4.60
2023-02-21T14:59:09.841Z,3.70
2023-02-21T15:01:49.486Z,3.20
2023-02-21T15:04:27.235Z,4.80
2023-02-21T15:07:12.153Z,4.30
2023-02-21T15:09:42.884Z,2.80
2023-02-21T15:12:17.818Z,4.50
2023-02-21T15:14:53.768Z,4.10
2023-02-21T15:17:25.099Z,5.40
2023-02-21T15:20:24.624Z,5.00
2023-02-21T15:23:29.964Z,5.80
2023-02-21T15:26:02.799Z,4.90
2023-02-21T15:28:33.687Z,4.10
2023-02-21T15:31:08.754Z,3.80
2023-02-21T15:33:40.193Z,4.10
2023-02-21T15:36:25.500Z,5.20
2023-02-21T15:38:58.839Z,3.80
2023-02-21T15:41:37.400Z,4.80
2023-02-21T15:44:15.264Z,4.60
2023-02-21T15:46:52.338Z,3.80
2023-02-21T15:49:47.957Z,4.50
2023-02-21T15:52:27.290Z,5.10
2023-02-21T15:55:21.271Z,4.20
2023-02-21T15:58:00.812Z,4.70
2023-02-21T16:00:35.643Z,5.50
2023-02-21T16:03:37.197Z,4.20
2023-02-21T16:06:25.342Z,4.50
2023-02-21T16:09:19.555Z,4.40
2023-02-21T16:11:53.838Z,4.10
2023-02-21T16:14:44.442Z,4.10
2023-02-21T16:17:22.138Z,3.80
2023-02-21T16:19:54.792Z,5.60
2023-02-21T16:22:59.551Z,4.20
2023-02-21T16:25:27.305Z,3.90
2023-02-21T16:28:00.443Z,3.20
2023-02-21T16:30:32.895Z,3.90
2023-02-21T16:33:06.146Z,5.70
2023-02-21T16:35:35.161Z,4.60
2023-02-21T16:38:03.746Z,8.70
2023-02-21T16:40:34.767Z,5.60
2023-02-21T16:43:05.112Z,8.10
2023-02-21T16:45:34.010Z,6.10
2023-02-21T16:48:05.530Z,5.60
2023-02-21T16:50:39.866Z,6.70
2023-02-21T16:53:15.135Z,4.80
2023-02-21T16:55:45.343Z,4.40
2023-02-21T16:58:34.391Z,4.70
2023-02-21T17:01:08.303Z,7.90
2023-02-21T17:03:37.296Z,7.30
2023-02-21T17:06:07.067Z,5.40
2023-02-21T17:08:35.695Z,6.90
2023-02-21T17:11:04.803Z,6.10
2023-02-21T17:13:34.083Z,6.90
2023-02-21T17:16:02.728Z,6.00
2023-02-21T17:18:31.868Z,5.50
2023-02-21T17:21:01.684Z,4.80
2023-02-21T17:23:30.464Z,6.70
2023-02-21T17:25:59.662Z,5.50
2023-02-21T17:28:28.469Z,5.90
2023-02-21T17:30:59.712Z,5.50
2023-02-21T17:33:28.489Z,5.60
2023-02-21T17:35:57.472Z,8.20
2023-02-21T17:38:26.366Z,5.70
2023-02-21T17:40:55.045Z,7.30
2023-02-21T17:43:23.756Z,7.10
2023-02-21T17:45:52.535Z,6.70
2023-02-21T17:48:21.207Z,8.20
2023-02-21T17:50:49.688Z,8.00
2023-02-21T17:53:18.376Z,8.30
2023-02-21T17:55:46.957Z,7.90
2023-02-21T17:58:15.543Z,5.90
2023-02-21T18:00:45.615Z,5.60
2023-02-21T18:05:42.525Z,4.80
2023-02-21T18:08:11.165Z,5.10
2023-02-21T18:10:42.659Z,6.20
2023-02-21T18:13:11.137Z,7.90
2023-02-21T18:15:39.831Z,6.40
2023-02-21T18:18:08.438Z,5.40
2023-02-21T18:20:37.398Z,10.80
2023-02-21T18:23:08.750Z,14.30
2023-02-21T18:25:37.843Z,13.10
2023-02-21T18:28:06.427Z,13.50
2023-02-21T18:30:35.378Z,12.20
2023-02-21T18:33:04.721Z,11.30
2023-02-21T18:35:33.300Z,13.30
2023-02-21T18:38:01.994Z,12.10
2023-02-21T18:40:44.818Z,12.20
2023-02-21T18:43:20.974Z,15.50
2023-02-21T18:45:52.007Z,8.40
2023-02-21T18:48:23.402Z,9.90
2023-02-21T18:50:52.348Z,10.30
2023-02-21T18:53:21.954Z,11.60
2023-02-21T18:55:50.848Z,12.70
2023-02-21T18:58:19.432Z,11.50
2023-02-21T19:00:49.819Z,12.10
2023-02-21T19:03:18.542Z,13.70
2023-02-21T19:05:48.457Z,10.20
2023-02-21T19:10:46.745Z,14.00
2023-02-21T19:13:17.682Z,12.70
2023-02-21T19:15:46.586Z,12.00
2023-02-21T19:18:15.060Z,11.30
2023-02-21T19:20:44.155Z,9.20
2023-02-21T19:23:13.454Z,7.70
2023-02-21T19:25:41.927Z,7.40
2023-02-21T19:28:10.721Z,7.40
2023-02-21T19:30:39.204Z,8.40
2023-02-21T19:33:10.039Z,8.00
2023-02-21T19:35:39.950Z,7.80
2023-02-21T19:38:09.677Z,5.40
2023-02-21T19:40:38.449Z,8.40
2023-02-21T19:43:07.237Z,7.30
2023-02-21T19:45:35.832Z,7.20
2023-02-21T19:48:04.915Z,6.30
2023-02-21T19:50:35.160Z,6.90
2023-02-21T19:53:04.230Z,7.40
2023-02-21T19:55:33.841Z,6.80
2023-02-21T19:58:07.143Z,8.10
2023-02-21T20:00:38.932Z,8.20
2023-02-21T20:03:07.470Z,7.30
2023-02-21T20:05:36.369Z,7.20
2023-02-21T20:08:05.485Z,7.60
2023-02-21T20:10:34.244Z,7.80
2023-02-21T20:13:06.513Z,7.10
2023-02-21T20:15:36.320Z,6.10
2023-02-21T20:18:05.232Z,8.80
2023-02-21T20:20:33.827Z,5.90
2023-02-21T20:23:03.813Z,6.50
2023-02-21T20:25:32.709Z,8.60
2023-02-21T20:28:01.908Z,7.40
2023-02-21T20:30:30.691Z,6.20
2023-02-21T20:33:01.543Z,10.00
2023-02-21T20:35:30.216Z,9.10
2023-02-21T20:38:02.587Z,7.30
2023-02-21T20:40:35.477Z,5.00
2023-02-21T20:43:03.949Z,4.80
2023-02-21T20:45:33.557Z,5.00
2023-02-21T20:48:02.149Z,6.30
2023-02-21T20:50:30.929Z,4.80
2023-02-21T20:52:59.510Z,6.30
2023-02-21T20:55:28.003Z,5.80
2023-02-21T20:57:57.098Z,4.90
2023-02-21T21:00:30.673Z,5.60
2023-02-21T21:02:59.785Z,5.60
2023-02-21T21:05:28.587Z,4.90
2023-02-21T21:07:58.405Z,5.10
2023-02-21T21:10:27.378Z,5.50
2023-02-21T21:12:56.879Z,6.20
2023-02-21T21:15:26.282Z,4.60
2023-02-21T21:17:55.690Z,4.00
2023-02-21T21:20:27.187Z,5.30
2023-02-21T21:22:56.031Z,6.10
2023-02-21T21:25:24.708Z,5.30
2023-02-21T21:27:53.494Z,5.40
2023-02-21T21:30:23.890Z,4.80
2023-02-21T21:32:52.845Z,5.80
2023-02-21T21:35:22.353Z,5.50
2023-02-21T21:37:51.012Z,6.60
2023-02-21T21:40:24.388Z,5.80
2023-02-21T21:42:54.332Z,5.20
2023-02-21T21:45:25.556Z,5.00
2023-02-21T21:47:59.722Z,6.20
2023-02-21T21:50:28.470Z,7.30
2023-02-21T21:52:58.764Z,7.40
2023-02-21T21:55:30.315Z,7.10
2023-02-21T21:57:59.401Z,6.70
2023-02-21T22:00:30.806Z,8.00
2023-02-21T22:03:02.251Z,6.70
2023-02-21T22:05:32.667Z,6.50
2023-02-21T22:10:30.542Z,7.20
2023-02-21T22:13:00.874Z,6.30
2023-02-21T22:15:30.575Z,5.30
2023-02-21T22:18:04.222Z,5.50
2023-02-21T22:20:32.961Z,5.50
2023-02-21T22:23:03.021Z,4.90
2023-02-21T22:25:37.605Z,6.60
2023-02-21T22:28:13.332Z,5.60
2023-02-21T22:30:42.137Z,5.50
2023-02-21T22:33:13.797Z,5.30
2023-02-21T22:35:42.792Z,4.90
2023-02-21T22:38:14.754Z,6.30
2023-02-21T22:40:44.471Z,4.80
2023-02-21T22:43:14.023Z,6.60
2023-02-21T22:45:50.350Z,6.60
2023-02-21T22:48:20.956Z,5.90
2023-02-21T22:50:50.261Z,5.70
2023-02-21T22:53:19.974Z,5.20
2023-02-21T22:55:52.533Z,5.50
2023-02-21T22:58:22.427Z,7.00
2023-02-21T23:00:52.890Z,5.50
2023-02-21T23:03:22.085Z,5.60
2023-02-21T23:05:52.413Z,5.80
2023-02-21T23:08:23.422Z,4.90
2023-02-21T23:10:52.049Z,6.30
2023-02-21T23:13:23.898Z,7.20
2023-02-21T23:15:56.127Z,5.40
2023-02-21T23:18:26.617Z,4.70
2023-02-21T23:20:57.491Z,6.00
2023-02-21T23:23:28.807Z,6.40
2023-02-21T23:26:00.033Z,5.60
2023-02-21T23:28:30.851Z,4.60
2023-02-21T23:30:59.948Z,6.00
2023-02-21T23:33:34.723Z,5.20
2023-02-21T23:36:05.064Z,5.90
2023-02-21T23:38:38.732Z,6.00
2023-02-21T23:41:08.647Z,5.10
2023-02-21T23:43:37.751Z,5.00
2023-02-21T23:46:08.154Z,6.40
2023-02-21T23:48:38.076Z,6.30
2023-02-21T23:53:38.616Z,5.80
2023-02-21T23:56:13.301Z,6.80
2023-02-21T23:58:45.936Z,5.00
